createdAt,value
2022-10-08T00:01:29.740Z,2.17
2022-10-08T00:03:57.800Z,2.33
2022-10-08T00:06:28.176Z,2.60
2022-10-08T00:08:57.597Z,2.40
2022-10-08T00:11:27.129Z,4.78
2022-10-08T00:13:57.295Z,4.25
2022-10-08T00:16:27.684Z,4.45
2022-10-08T00:18:59.326Z,4.13
2022-10-08T00:21:29.896Z,3.65
2022-10-08T00:23:58.899Z,9.23
2022-10-08T00:26:28.919Z,3.85
2022-10-08T00:29:01.563Z,2.72
2022-10-08T00:31:32.434Z,2.40
2022-10-08T00:34:02.117Z,4.10
2022-10-08T00:36:32.581Z,5.47
2022-10-08T00:39:02.572Z,5.88
2022-10-08T00:41:33.121Z,6.40
2022-10-08T00:46:36.497Z,7.70
2022-10-08T01:03:58.436Z,5.88
2022-10-08T02:22:40.088Z,12.10
2022-10-08T02:27:51.778Z,12.18
2022-10-08T02:30:20.247Z,11.57
2022-10-08T02:32:54.717Z,11.90
2022-10-08T02:35:27.690Z,11.73
2022-10-08T02:38:01.028Z,13.57
2022-10-08T02:40:31.546Z,12.25
2022-10-08T02:43:06.305Z,12.57
2022-10-08T02:45:42.539Z,12.83
2022-10-08T02:48:20.399Z,12.67
2022-10-08T02:50:52.527Z,13.23
2022-10-08T02:53:23.002Z,12.85
2022-10-08T02:56:01.694Z,12.35
2022-10-08T02:58:31.517Z,11.90
2022-10-08T03:01:04.745Z,11.50
2022-10-08T03:03:35.637Z,12.13
2022-10-08T03:06:07.801Z,12.32
2022-10-08T03:08:38.325Z,12.30
2022-10-08T03:11:06.736Z,12.63
2022-10-08T03:13:39.653Z,13.15
2022-10-08T03:16:10.026Z,12.50
2022-10-08T03:18:39.322Z,12.80
2022-10-08T03:21:09.955Z,12.73
2022-10-08T03:23:37.922Z,11.30
2022-10-08T03:26:06.192Z,12.25
2022-10-08T03:28:34.369Z,12.40
2022-10-08T03:31:06.827Z,11.43
2022-10-08T03:33:34.931Z,12.50
2022-10-08T03:36:03.094Z,13.30
2022-10-08T03:38:31.059Z,12.43
2022-10-08T03:41:00.246Z,12.60
2022-10-08T03:43:32.989Z,14.02
2022-10-08T03:46:01.204Z,14.10
2022-10-08T03:48:30.799Z,14.93
2022-10-08T03:51:00.690Z,13.70
2022-10-08T03:53:29.738Z,13.15
2022-10-08T03:55:57.611Z,12.43
2022-10-08T03:58:25.605Z,11.05
2022-10-08T04:01:00.980Z,13.10
2022-10-08T04:03:32.210Z,13.63
2022-10-08T04:06:00.773Z,13.10
2022-10-08T04:08:28.922Z,12.50
2022-10-08T04:10:56.845Z,12.27
2022-10-08T04:13:24.740Z,13.57
2022-10-08T04:15:52.750Z,13.23
2022-10-08T04:18:20.684Z,13.43
2022-10-08T04:20:50.017Z,13.73
2022-10-08T04:23:17.967Z,13.03
2022-10-08T04:25:51.073Z,12.98
2022-10-08T04:28:19.348Z,12.80
2022-10-08T04:30:56.219Z,11.85
2022-10-08T04:33:24.583Z,12.93
2022-10-08T04:35:59.936Z,13.77
2022-10-08T04:38:29.383Z,13.80
2022-10-08T04:41:05.152Z,13.80
2022-10-08T04:43:33.153Z,13.23
2022-10-08T04:46:01.059Z,13.10
2022-10-08T04:48:29.286Z,13.88
2022-10-08T04:51:00.656Z,13.15
2022-10-08T04:53:29.045Z,13.27
2022-10-08T04:55:57.836Z,12.95
2022-10-08T04:58:27.224Z,13.73
2022-10-08T05:00:55.162Z,12.88
2022-10-08T05:03:23.040Z,13.15
2022-10-08T05:05:51.274Z,13.35
2022-10-08T05:08:20.625Z,12.68
2022-10-08T05:10:51.811Z,12.77
2022-10-08T05:13:19.776Z,13.00
2022-10-08T05:15:48.580Z,13.00
2022-10-08T05:18:16.780Z,15.10
2022-10-08T05:20:44.740Z,13.68
2022-10-08T05:23:12.699Z,12.70
2022-10-08T05:25:42.015Z,12.30
2022-10-08T05:28:10.080Z,12.70
2022-10-08T05:30:37.992Z,13.93
2022-10-08T05:33:05.922Z,12.57
2022-10-08T05:35:36.010Z,14.15
2022-10-08T05:38:03.954Z,12.93
2022-10-08T05:40:31.951Z,13.82
2022-10-08T05:43:01.492Z,14.03
2022-10-08T05:45:29.392Z,12.82
2022-10-08T05:47:57.363Z,13.57
2022-10-08T05:50:25.287Z,13.40
2022-10-08T05:52:53.743Z,14.10
2022-10-08T05:55:21.682Z,14.15
2022-10-08T05:57:49.619Z,13.73
2022-10-08T06:00:19.979Z,13.75
2022-10-08T06:02:50.962Z,12.77
2022-10-08T06:05:19.024Z,12.15
2022-10-08T06:07:47.130Z,12.82
2022-10-08T06:10:15.079Z,13.20
2022-10-08T06:12:43.011Z,12.60
2022-10-08T06:15:11.209Z,12.93
2022-10-08T06:17:40.479Z,12.73
2022-10-08T06:20:09.295Z,11.75
2022-10-08T06:22:37.234Z,13.33
2022-10-08T06:25:05.728Z,12.90
2022-10-08T06:27:33.627Z,13.90
2022-10-08T06:30:01.663Z,13.00
2022-10-08T06:32:29.610Z,12.70
2022-10-08T06:34:59.000Z,13.65
2022-10-08T06:39:54.581Z,12.80
2022-10-08T06:44:50.482Z,12.98
2022-10-08T06:47:18.399Z,13.07
2022-10-08T06:49:46.269Z,12.20
2022-10-08T06:52:15.539Z,12.75
2022-10-08T06:54:43.485Z,13.10
2022-10-08T06:57:11.428Z,13.13
2022-10-08T06:59:39.348Z,15.07
2022-10-08T07:02:07.593Z,13.55
2022-10-08T07:04:35.527Z,13.10
2022-10-08T07:07:03.442Z,12.73
2022-10-08T07:09:32.821Z,14.82
2022-10-08T07:12:00.722Z,13.52
2022-10-08T07:14:28.980Z,12.88
2022-10-08T07:51:36.357Z,4.60
2022-10-08T07:54:06.726Z,5.47
2022-10-08T07:56:36.243Z,9.82
2022-10-08T07:59:05.402Z,10.70
2022-10-08T08:01:35.660Z,11.68
2022-10-08T08:04:05.311Z,10.98
2022-10-08T08:06:34.638Z,9.27
2022-10-08T08:09:03.094Z,4.28
2022-10-08T08:11:31.446Z,2.53
2022-10-08T08:13:59.379Z,1.40
2022-10-08T08:16:29.268Z,2.20
2022-10-08T08:19:01.324Z,2.78
2022-10-08T08:21:32.027Z,2.30
2022-10-08T08:24:04.994Z,2.33
2022-10-08T08:26:35.884Z,1.35
2022-10-08T08:29:06.595Z,2.77
2022-10-08T08:31:36.280Z,3.33
2022-10-08T08:34:08.839Z,1.08
2022-10-08T08:39:06.897Z,2.20
2022-10-08T10:32:50.791Z,0.50
2022-10-08T13:03:00.451Z,0.50
2022-10-08T13:05:33.575Z,0.50
2022-10-08T13:08:25.560Z,0.50
2022-10-08T13:58:41.565Z,0.55
2022-10-08T14:01:09.592Z,0.80
2022-10-08T14:03:37.556Z,0.50
2022-10-08T14:06:07.389Z,0.50
2022-10-08T14:08:36.059Z,0.50
2022-10-08T14:11:03.994Z,0.60
2022-10-08T14:13:32.001Z,0.50
2022-10-08T14:15:59.967Z,0.60
2022-10-08T16:56:50.927Z,2.83
2022-10-08T16:59:21.341Z,8.70
2022-10-08T17:51:24.589Z,11.63
2022-10-08T17:58:50.023Z,18.90
2022-10-08T18:03:51.382Z,19.57
2022-10-08T18:31:08.180Z,15.57
2022-10-08T19:15:47.338Z,16.48
2022-10-08T19:30:35.295Z,16.90
2022-10-08T19:33:04.738Z,23.83
2022-10-08T19:35:32.635Z,23.77
2022-10-08T19:38:00.582Z,26.73
2022-10-08T19:40:28.497Z,25.73
2022-10-08T19:42:56.431Z,23.80
2022-10-08T19:45:24.430Z,22.88
2022-10-08T19:47:52.428Z,22.13
2022-10-08T19:50:21.716Z,18.33
2022-10-08T19:52:51.880Z,15.80
2022-10-08T19:55:19.978Z,15.18
2022-10-08T19:57:47.885Z,15.00
2022-10-08T20:00:16.407Z,15.20
2022-10-08T20:02:44.375Z,14.02
2022-10-08T20:05:12.361Z,16.35
2022-10-08T20:07:41.688Z,15.33
2022-10-08T20:52:31.818Z,16.58
2022-10-08T20:54:59.755Z,15.63
2022-10-08T20:57:29.063Z,15.68
2022-10-08T20:59:57.411Z,15.45
2022-10-08T21:02:26.529Z,15.93
2022-10-08T21:04:54.582Z,15.30
2022-10-08T21:07:22.450Z,16.00
2022-10-08T21:09:52.502Z,14.50
2022-10-08T21:12:20.459Z,14.83
2022-10-08T21:14:49.951Z,15.52
2022-10-08T21:17:17.905Z,14.90
2022-10-08T21:19:48.822Z,15.70
2022-10-08T21:22:16.917Z,15.60
2022-10-08T21:24:45.237Z,16.13
2022-10-08T21:27:13.209Z,14.23
2022-10-08T21:29:41.096Z,14.63
2022-10-08T21:32:10.512Z,15.43
2022-10-08T21:34:38.383Z,14.47
2022-10-08T21:37:06.870Z,12.55
2022-10-08T21:39:37.421Z,14.75
2022-10-08T21:42:05.489Z,13.82
2022-10-08T21:44:33.400Z,14.13
2022-10-08T21:47:01.299Z,14.77
2022-10-08T21:49:30.677Z,13.55
2022-10-08T21:51:58.655Z,13.98
2022-10-08T21:54:26.674Z,13.93
2022-10-08T21:56:54.621Z,14.38
2022-10-08T21:59:22.535Z,13.77
2022-10-08T22:01:51.747Z,14.73
